Wisby Teak — LAHV7 — position and weather

sailwx.info

Track history (hours):
 
Tides and Currents Weather Stations Pressure Air Temp Water Temp Dewpoint Dewpoint Depression Visibility Wind Speed Wind Dir Waves Ship Positions

Wisby Teak

Last reported at 2017-Nov-19 13:52 UTC. Time now 2017-Nov-20 23:02 UTC.
Position N 36°11' W 005°23'.

Length 100 m; draft 4.5 m.

Type: Tanker. MMSI: 259944000.

Date/timePositionNaut miles runAvg speedWind from/ knotsBaromVisibWave heightAir tempDewpointWater temp
2017-Nov-19 13:52N 36°11' W 005°23'7 0.3
2017-Nov-18 10:39N 36°04' W 005°22'0 3.0
2017-Nov-18 10:30N 36°03' W 005°22'0 0.2
2017-Nov-18 10:00N 36°04' W 005°22'0 0.1
2017-Nov-18 09:30N 36°04' W 005°22'0 0.3
2017-Nov-18 09:01N 36°03' W 005°22'1 1.5
2017-Nov-18 08:29N 36°03' W 005°23'5 9.1
2017-Nov-18 07:57N 35°58' W 005°25'  
2017-Nov-13 00:10N 32°19' W 009°48'2710.1
2017-Nov-12 21:31N 31°57' W 010°06'110.4
2017-Nov-12 21:27N 31°56' W 010°06'510.1
2017-Nov-12 20:58N 31°52' W 010°09'5 9.5
2017-Nov-12 20:27N 31°48' W 010°12'4 9.0
2017-Nov-12 20:00N 31°45' W 010°15'5 9.1
2017-Nov-12 19:30N 31°41' W 010°19'4 8.9
2017-Nov-12 19:01N 31°38' W 010°22'5 9.2
2017-Nov-12 18:30N 31°34' W 010°25'4 9.0
2017-Nov-12 18:01N 31°30' W 010°28'4 9.0
2017-Nov-12 17:31N 31°26' W 010°31'4 8.9
2017-Nov-12 17:01N 31°23' W 010°34'5 9.2
2017-Nov-12 16:31N 31°19' W 010°37'5 9.3
2017-Nov-12 16:01N 31°15' W 010°40'5 9.4
2017-Nov-12 15:31N 31°11' W 010°43'5 9.2
2017-Nov-12 15:01N 31°07' W 010°46'8 9.2
2017-Nov-12 14:08N 31°01' W 010°51'6610.3
2017-Nov-12 07:39N 30°07' W 011°36'210.9
2017-Nov-12 07:27N 30°05' W 011°38'3010.6
2017-Nov-12 04:39N 29°40' W 011°57'210.6
2017-Nov-12 04:29N 29°39' W 011°58'510.6
2017-Nov-12 04:00N 29°35' W 012°02'1210.3
2017-Nov-12 02:52N 29°25' W 012°09'4 9.9
2017-Nov-12 02:27N 29°22' W 012°12'510.0
2017-Nov-12 01:56N 29°17' W 012°15'510.1
2017-Nov-12 01:28N 29°14' W 012°18'13 9.7
2017-Nov-12 00:10N 29°03' W 012°27'2 9.6
2017-Nov-11 23:59N 29°02' W 012°28'14 9.3
2017-Nov-11 22:32N 28°51' W 012°37'2 9.1
2017-Nov-11 22:20N 28°50' W 012°38'39 9.4
2017-Nov-11 18:09N 28°17' W 013°04'2 9.6
2017-Nov-11 17:55N 28°15' W 013°05'4 9.7
2017-Nov-11 17:31N 28°12' W 013°08'13 9.6
2017-Nov-11 16:07N 28°01' W 013°17'1 9.6
2017-Nov-11 16:01N 28°00' W 013°17'5 9.6
2017-Nov-11 15:31N 27°57' W 013°21'5 9.0
2017-Nov-11 15:01N 27°53' W 013°23'4 8.9
2017-Nov-11 14:31N 27°49' W 013°26'4 8.8
2017-Nov-11 14:00N 27°45' W 013°29'4 8.8
2017-Nov-11 13:31N 27°41' W 013°31'5 9.3
2017-Nov-11 13:01N 27°37' W 013°30'5 9.8
2017-Nov-11 12:31N 27°32' W 013°30'5 9.6
2017-Nov-11 12:01N 27°27' W 013°31'5 9.9
2017-Nov-11 11:31N 27°22' W 013°31'510.0
2017-Nov-11 11:01N 27°17' W 013°31'610.3
2017-Nov-11 10:27N 27°11' W 013°31'510.6
2017-Nov-11 10:00N 27°07' W 013°28'3 5.7
2017-Nov-11 09:30N 27°06' W 013°26'0 0.1
2017-Nov-11 08:47N 27°06' W 013°26'0 0.0
2017-Nov-11 08:20N 27°06' W 013°26'0 0.0
2017-Nov-11 07:59N 27°06' W 013°26'0 0.0
2017-Nov-10 18:29N 27°06' W 013°26'0 0.0
2017-Nov-10 17:59N 27°06' W 013°26'0 0.0
2017-Nov-10 15:23N 27°06' W 013°26'0 0.0
2017-Nov-10 14:59N 27°06' W 013°26'0 0.0
2017-Nov-10 14:20N 27°06' W 013°26'0 0.0
2017-Nov-10 07:59N 27°06' W 013°26'0 0.0
2017-Nov-10 07:29N 27°06' W 013°26'0 0.0
2017-Nov-10 06:47N 27°06' W 013°26'0 0.0
2017-Nov-10 06:26N 27°06' W 013°26'0 0.0
2017-Nov-10 04:44N 27°06' W 013°26'0 0.0
2017-Nov-10 04:05N 27°06' W 013°26'0 0.0
2017-Nov-10 03:59N 27°06' W 013°26'0 0.0
2017-Nov-09 23:08N 27°06' W 013°26'0 0.0
2017-Nov-09 22:50N 27°06' W 013°26'0 0.0
2017-Nov-09 21:50N 27°06' W 013°26'0 0.0
2017-Nov-09 21:08N 27°06' W 013°26'0 0.0
2017-Nov-09 20:56N 27°06' W 013°26'0 0.0
2017-Nov-09 20:23N 27°06' W 013°26'0 0.0
2017-Nov-09 16:56N 27°06' W 013°26'0 0.0
2017-Nov-09 16:29N 27°06' W 013°26'0 0.0
2017-Nov-09 15:47N 27°06' W 013°26'0 0.3
2017-Nov-09 15:30N 27°06' W 013°26'2 3.4
2017-Nov-09 15:00N 27°05' W 013°28'1 0.8
2017-Nov-09 14:07N 27°06' W 013°28'  
Track history (hours):
 
Tides and Currents Weather Stations Pressure Air Temp Water Temp Dewpoint Dewpoint Depression Visibility Wind Speed Wind Dir Waves Ship Positions

Wisby Teak

Last reported at 2017-Nov-19 13:52 UTC. Time now 2017-Nov-20 23:02 UTC.
Position N 36°11' W 005°23'.

Length 100 m; draft 4.5 m.

Type: Tanker. MMSI: 259944000.

Date/timePositionNaut miles runAvg speedWind from/ knotsBaromVisibWave heightAir tempDewpointWater temp
2017-Nov-19 13:52N 36°11' W 005°23'7 0.3
2017-Nov-18 10:39N 36°04' W 005°22'0 3.0
2017-Nov-18 10:30N 36°03' W 005°22'0 0.2
2017-Nov-18 10:00N 36°04' W 005°22'0 0.1
2017-Nov-18 09:30N 36°04' W 005°22'0 0.3
2017-Nov-18 09:01N 36°03' W 005°22'1 1.5
2017-Nov-18 08:29N 36°03' W 005°23'5 9.1
2017-Nov-18 07:57N 35°58' W 005°25'  
2017-Nov-13 00:10N 32°19' W 009°48'2710.1
2017-Nov-12 21:31N 31°57' W 010°06'110.4
2017-Nov-12 21:27N 31°56' W 010°06'510.1
2017-Nov-12 20:58N 31°52' W 010°09'5 9.5
2017-Nov-12 20:27N 31°48' W 010°12'4 9.0
2017-Nov-12 20:00N 31°45' W 010°15'5 9.1
2017-Nov-12 19:30N 31°41' W 010°19'4 8.9
2017-Nov-12 19:01N 31°38' W 010°22'5 9.2
2017-Nov-12 18:30N 31°34' W 010°25'4 9.0
2017-Nov-12 18:01N 31°30' W 010°28'4 9.0
2017-Nov-12 17:31N 31°26' W 010°31'4 8.9
2017-Nov-12 17:01N 31°23' W 010°34'5 9.2
2017-Nov-12 16:31N 31°19' W 010°37'5 9.3
2017-Nov-12 16:01N 31°15' W 010°40'5 9.4
2017-Nov-12 15:31N 31°11' W 010°43'5 9.2
2017-Nov-12 15:01N 31°07' W 010°46'8 9.2
2017-Nov-12 14:08N 31°01' W 010°51'6610.3
2017-Nov-12 07:39N 30°07' W 011°36'210.9
2017-Nov-12 07:27N 30°05' W 011°38'3010.6
2017-Nov-12 04:39N 29°40' W 011°57'210.6
2017-Nov-12 04:29N 29°39' W 011°58'510.6
2017-Nov-12 04:00N 29°35' W 012°02'1210.3
2017-Nov-12 02:52N 29°25' W 012°09'4 9.9
2017-Nov-12 02:27N 29°22' W 012°12'510.0
2017-Nov-12 01:56N 29°17' W 012°15'510.1
2017-Nov-12 01:28N 29°14' W 012°18'13 9.7
2017-Nov-12 00:10N 29°03' W 012°27'2 9.6
2017-Nov-11 23:59N 29°02' W 012°28'14 9.3
2017-Nov-11 22:32N 28°51' W 012°37'2 9.1
2017-Nov-11 22:20N 28°50' W 012°38'39 9.4
2017-Nov-11 18:09N 28°17' W 013°04'2 9.6
2017-Nov-11 17:55N 28°15' W 013°05'4 9.7
2017-Nov-11 17:31N 28°12' W 013°08'13 9.6
2017-Nov-11 16:07N 28°01' W 013°17'1 9.6
2017-Nov-11 16:01N 28°00' W 013°17'5 9.6
2017-Nov-11 15:31N 27°57' W 013°21'5 9.0
2017-Nov-11 15:01N 27°53' W 013°23'4 8.9
2017-Nov-11 14:31N 27°49' W 013°26'4 8.8
2017-Nov-11 14:00N 27°45' W 013°29'4 8.8
2017-Nov-11 13:31N 27°41' W 013°31'5 9.3
2017-Nov-11 13:01N 27°37' W 013°30'5 9.8
2017-Nov-11 12:31N 27°32' W 013°30'5 9.6
2017-Nov-11 12:01N 27°27' W 013°31'5 9.9
2017-Nov-11 11:31N 27°22' W 013°31'510.0
2017-Nov-11 11:01N 27°17' W 013°31'610.3
2017-Nov-11 10:27N 27°11' W 013°31'510.6
2017-Nov-11 10:00N 27°07' W 013°28'3 5.7
2017-Nov-11 09:30N 27°06' W 013°26'0 0.1
2017-Nov-11 08:47N 27°06' W 013°26'0 0.0
2017-Nov-11 08:20N 27°06' W 013°26'0 0.0
2017-Nov-11 07:59N 27°06' W 013°26'0 0.0
2017-Nov-10 18:29N 27°06' W 013°26'0 0.0
2017-Nov-10 17:59N 27°06' W 013°26'0 0.0
2017-Nov-10 15:23N 27°06' W 013°26'0 0.0
2017-Nov-10 14:59N 27°06' W 013°26'0 0.0
2017-Nov-10 14:20N 27°06' W 013°26'0 0.0
2017-Nov-10 07:59N 27°06' W 013°26'0 0.0
2017-Nov-10 07:29N 27°06' W 013°26'0 0.0
2017-Nov-10 06:47N 27°06' W 013°26'0 0.0
2017-Nov-10 06:26N 27°06' W 013°26'0 0.0
2017-Nov-10 04:44N 27°06' W 013°26'0 0.0
2017-Nov-10 04:05N 27°06' W 013°26'0 0.0
2017-Nov-10 03:59N 27°06' W 013°26'0 0.0
2017-Nov-09 23:08N 27°06' W 013°26'0 0.0
2017-Nov-09 22:50N 27°06' W 013°26'0 0.0
2017-Nov-09 21:50N 27°06' W 013°26'0 0.0
2017-Nov-09 21:08N 27°06' W 013°26'0 0.0
2017-Nov-09 20:56N 27°06' W 013°26'0 0.0
2017-Nov-09 20:23N 27°06' W 013°26'0 0.0
2017-Nov-09 16:56N 27°06' W 013°26'0 0.0
2017-Nov-09 16:29N 27°06' W 013°26'0 0.0
2017-Nov-09 15:47N 27°06' W 013°26'0 0.3
2017-Nov-09 15:30N 27°06' W 013°26'2 3.4
2017-Nov-09 15:00N 27°05' W 013°28'1 0.8
2017-Nov-09 14:07N 27°06' W 013°28'  

Dump ship's entire track history